sensor_id;sensor_type;location;lat;lon;timestamp;temperature;humidity
8002;DHT22;4046;48.774;8.732;2023-03-13T00:00:51;20.40;72.00
8002;DHT22;4046;48.774;8.732;2023-03-13T00:03:18;20.40;72.00
8002;DHT22;4046;48.774;8.732;2023-03-13T00:05:44;20.40;72.00
8002;DHT22;4046;48.774;8.732;2023-03-13T00:08:10;20.40;72.00
8002;DHT22;4046;48.774;8.732;2023-03-13T00:10:37;20.50;72.10
8002;DHT22;4046;48.774;8.732;2023-03-13T00:13:07;20.40;72.00
8002;DHT22;4046;48.774;8.732;2023-03-13T00:15:34;20.50;72.20
8002;DHT22;4046;48.774;8.732;2023-03-13T00:18:00;20.40;72.10
8002;DHT22;4046;48.774;8.732;2023-03-13T00:20:26;20.40;72.10
8002;DHT22;4046;48.774;8.732;2023-03-13T00:22:52;20.40;72.10
8002;DHT22;4046;48.774;8.732;2023-03-13T00:25:18;20.50;72.10
8002;DHT22;4046;48.774;8.732;2023-03-13T00:27:45;20.50;72.10
8002;DHT22;4046;48.774;8.732;2023-03-13T00:30:11;20.40;72.00
8002;DHT22;4046;48.774;8.732;2023-03-13T00:32:42;20.50;72.10
8002;DHT22;4046;48.774;8.732;2023-03-13T00:35:08;20.40;72.00
8002;DHT22;4046;48.774;8.732;2023-03-13T00:37:34;20.40;72.10
8002;DHT22;4046;48.774;8.732;2023-03-13T00:40:01;20.40;72.10
8002;DHT22;4046;48.774;8.732;2023-03-13T00:42:27;20.40;72.10
8002;DHT22;4046;48.774;8.732;2023-03-13T00:44:53;20.50;72.20
8002;DHT22;4046;48.774;8.732;2023-03-13T00:47:19;20.40;72.10
8002;DHT22;4046;48.774;8.732;2023-03-13T00:49:45;20.50;72.20
8002;DHT22;4046;48.774;8.732;2023-03-13T00:52:12;20.50;72.10
8002;DHT22;4046;48.774;8.732;2023-03-13T00:54:38;20.50;72.10
8002;DHT22;4046;48.774;8.732;2023-03-13T00:57:04;20.40;72.10
8002;DHT22;4046;48.774;8.732;2023-03-13T00:59:30;20.40;72.00
8002;DHT22;4046;48.774;8.732;2023-03-13T01:01:56;20.40;72.00
8002;DHT22;4046;48.774;8.732;2023-03-13T01:04:23;20.40;72.10
8002;DHT22;4046;48.774;8.732;2023-03-13T01:06:49;20.40;72.10
8002;DHT22;4046;48.774;8.732;2023-03-13T01:09:17;20.40;72.10
8002;DHT22;4046;48.774;8.732;2023-03-13T01:11:45;20.40;72.10
8002;DHT22;4046;48.774;8.732;2023-03-13T01:14:14;20.40;72.10
8002;DHT22;4046;48.774;8.732;2023-03-13T01:16:41;20.40;72.10
8002;DHT22;4046;48.774;8.732;2023-03-13T01:19:12;20.40;72.10
8002;DHT22;4046;48.774;8.732;2023-03-13T01:21:40;20.40;72.10
8002;DHT22;4046;48.774;8.732;2023-03-13T01:24:06;20.40;72.00
8002;DHT22;4046;48.774;8.732;2023-03-13T01:26:32;20.40;72.00
8002;DHT22;4046;48.774;8.732;2023-03-13T01:28:59;20.50;72.20
8002;DHT22;4046;48.774;8.732;2023-03-13T01:31:28;20.40;72.10
8002;DHT22;4046;48.774;8.732;2023-03-13T01:33:57;20.50;72.10
8002;DHT22;4046;48.774;8.732;2023-03-13T01:36:24;20.50;72.10
8002;DHT22;4046;48.774;8.732;2023-03-13T01:38:53;20.40;72.00
8002;DHT22;4046;48.774;8.732;2023-03-13T01:41:21;20.40;72.10
8002;DHT22;4046;48.774;8.732;2023-03-13T01:43:48;20.40;72.10
8002;DHT22;4046;48.774;8.732;2023-03-13T01:46:41;20.40;72.10
8002;DHT22;4046;48.774;8.732;2023-03-13T01:49:22;20.40;72.00
8002;DHT22;4046;48.774;8.732;2023-03-13T01:52:23;20.40;72.10
8002;DHT22;4046;48.774;8.732;2023-03-13T01:54:59;20.40;72.10
8002;DHT22;4046;48.774;8.732;2023-03-13T01:57:33;20.40;72.10
8002;DHT22;4046;48.774;8.732;2023-03-13T02:00:05;20.40;72.10
8002;DHT22;4046;48.774;8.732;2023-03-13T02:02:35;20.40;72.10
8002;DHT22;4046;48.774;8.732;2023-03-13T02:05:03;20.40;72.10
8002;DHT22;4046;48.774;8.732;2023-03-13T02:07:54;20.40;72.10
8002;DHT22;4046;48.774;8.732;2023-03-13T02:10:22;20.40;72.20
8002;DHT22;4046;48.774;8.732;2023-03-13T02:12:50;20.40;72.10
8002;DHT22;4046;48.774;8.732;2023-03-13T02:15:19;20.40;73.00
8002;DHT22;4046;48.774;8.732;2023-03-13T02:17:47;20.40;72.20
8002;DHT22;4046;48.774;8.732;2023-03-13T02:20:16;20.40;72.20
8002;DHT22;4046;48.774;8.732;2023-03-13T02:22:58;20.40;72.20
8002;DHT22;4046;48.774;8.732;2023-03-13T02:28:04;20.40;72.10
8002;DHT22;4046;48.774;8.732;2023-03-13T02:30:32;20.40;72.20
8002;DHT22;4046;48.774;8.732;2023-03-13T02:33:00;20.40;72.20
8002;DHT22;4046;48.774;8.732;2023-03-13T02:35:26;20.40;72.20
8002;DHT22;4046;48.774;8.732;2023-03-13T02:37:56;20.40;72.10
8002;DHT22;4046;48.774;8.732;2023-03-13T02:40:28;20.40;72.10
8002;DHT22;4046;48.774;8.732;2023-03-13T02:42:57;20.40;72.20
8002;DHT22;4046;48.774;8.732;2023-03-13T02:45:25;20.40;72.20
8002;DHT22;4046;48.774;8.732;2023-03-13T02:47:51;20.40;72.20
8002;DHT22;4046;48.774;8.732;2023-03-13T02:50:18;20.40;72.20
8002;DHT22;4046;48.774;8.732;2023-03-13T02:52:54;20.40;72.20
8002;DHT22;4046;48.774;8.732;2023-03-13T02:55:25;20.40;72.20
8002;DHT22;4046;48.774;8.732;2023-03-13T02:57:53;20.40;72.20
8002;DHT22;4046;48.774;8.732;2023-03-13T03:00:19;20.40;72.20
8002;DHT22;4046;48.774;8.732;2023-03-13T03:02:46;20.40;72.20
8002;DHT22;4046;48.774;8.732;2023-03-13T03:05:13;20.40;72.20
8002;DHT22;4046;48.774;8.732;2023-03-13T03:07:39;20.40;72.30
8002;DHT22;4046;48.774;8.732;2023-03-13T03:10:06;20.40;72.20
8002;DHT22;4046;48.774;8.732;2023-03-13T03:12:33;20.40;72.20
8002;DHT22;4046;48.774;8.732;2023-03-13T03:14:59;20.40;72.30
8002;DHT22;4046;48.774;8.732;2023-03-13T03:17:25;20.40;72.30
8002;DHT22;4046;48.774;8.732;2023-03-13T03:19:51;20.40;72.20
8002;DHT22;4046;48.774;8.732;2023-03-13T03:22:18;20.40;72.30
8002;DHT22;4046;48.774;8.732;2023-03-13T03:24:44;20.40;72.30
8002;DHT22;4046;48.774;8.732;2023-03-13T03:27:11;20.40;72.30
8002;DHT22;4046;48.774;8.732;2023-03-13T03:29:37;20.40;72.30
8002;DHT22;4046;48.774;8.732;2023-03-13T03:32:04;20.40;72.30
8002;DHT22;4046;48.774;8.732;2023-03-13T03:34:30;20.40;72.20
8002;DHT22;4046;48.774;8.732;2023-03-13T03:36:56;20.40;72.30
8002;DHT22;4046;48.774;8.732;2023-03-13T03:39:23;20.40;72.30
8002;DHT22;4046;48.774;8.732;2023-03-13T03:41:49;20.40;72.30
8002;DHT22;4046;48.774;8.732;2023-03-13T03:44:16;20.40;72.30
8002;DHT22;4046;48.774;8.732;2023-03-13T03:46:42;20.40;72.30
8002;DHT22;4046;48.774;8.732;2023-03-13T03:49:08;20.40;72.30
8002;DHT22;4046;48.774;8.732;2023-03-13T03:51:34;20.40;72.30
8002;DHT22;4046;48.774;8.732;2023-03-13T03:54:00;20.40;72.30
8002;DHT22;4046;48.774;8.732;2023-03-13T03:56:26;20.40;72.30
8002;DHT22;4046;48.774;8.732;2023-03-13T03:58:53;20.40;72.30
8002;DHT22;4046;48.774;8.732;2023-03-13T04:01:19;20.40;72.30
8002;DHT22;4046;48.774;8.732;2023-03-13T04:03:45;20.40;72.30
8002;DHT22;4046;48.774;8.732;2023-03-13T04:06:13;20.40;72.30
8002;DHT22;4046;48.774;8.732;2023-03-13T04:08:39;20.40;72.30
8002;DHT22;4046;48.774;8.732;2023-03-13T04:11:05;20.40;72.30
8002;DHT22;4046;48.774;8.732;2023-03-13T04:13:31;20.40;72.30
8002;DHT22;4046;48.774;8.732;2023-03-13T04:15:57;20.40;72.30
8002;DHT22;4046;48.774;8.732;2023-03-13T04:18:24;20.40;72.40
8002;DHT22;4046;48.774;8.732;2023-03-13T04:20:50;20.40;72.40
8002;DHT22;4046;48.774;8.732;2023-03-13T04:23:24;20.40;72.40
8002;DHT22;4046;48.774;8.732;2023-03-13T04:25:50;20.40;72.40
8002;DHT22;4046;48.774;8.732;2023-03-13T04:28:16;20.40;72.40
8002;DHT22;4046;48.774;8.732;2023-03-13T04:30:42;20.40;72.40
8002;DHT22;4046;48.774;8.732;2023-03-13T04:33:09;20.40;72.40
8002;DHT22;4046;48.774;8.732;2023-03-13T04:35:35;20.40;72.40
8002;DHT22;4046;48.774;8.732;2023-03-13T04:38:01;20.40;72.40
8002;DHT22;4046;48.774;8.732;2023-03-13T04:40:27;20.40;72.50
8002;DHT22;4046;48.774;8.732;2023-03-13T04:42:54;20.40;72.40
8002;DHT22;4046;48.774;8.732;2023-03-13T04:45:20;20.40;72.40
8002;DHT22;4046;48.774;8.732;2023-03-13T04:47:46;20.50;72.60
8002;DHT22;4046;48.774;8.732;2023-03-13T04:50:12;20.40;72.40
8002;DHT22;4046;48.774;8.732;2023-03-13T04:52:38;20.40;72.50
8002;DHT22;4046;48.774;8.732;2023-03-13T04:55:05;20.40;72.50
8002;DHT22;4046;48.774;8.732;2023-03-13T04:57:31;20.40;72.60
8002;DHT22;4046;48.774;8.732;2023-03-13T04:59:57;20.40;72.60
8002;DHT22;4046;48.774;8.732;2023-03-13T05:02:23;20.40;72.60
8002;DHT22;4046;48.774;8.732;2023-03-13T05:04:50;20.40;72.60
8002;DHT22;4046;48.774;8.732;2023-03-13T05:07:17;20.40;72.60
8002;DHT22;4046;48.774;8.732;2023-03-13T05:09:43;20.40;72.50
8002;DHT22;4046;48.774;8.732;2023-03-13T05:12:09;20.40;72.60
8002;DHT22;4046;48.774;8.732;2023-03-13T05:14:35;20.40;72.60
8002;DHT22;4046;48.774;8.732;2023-03-13T05:17:01;20.40;72.60
8002;DHT22;4046;48.774;8.732;2023-03-13T05:19:28;20.40;72.50
8002;DHT22;4046;48.774;8.732;2023-03-13T05:21:54;20.40;72.60
8002;DHT22;4046;48.774;8.732;2023-03-13T05:24:20;20.40;72.60
8002;DHT22;4046;48.774;8.732;2023-03-13T05:26:46;20.40;72.60
8002;DHT22;4046;48.774;8.732;2023-03-13T05:29:12;20.40;72.60
8002;DHT22;4046;48.774;8.732;2023-03-13T05:31:38;20.50;72.70
8002;DHT22;4046;48.774;8.732;2023-03-13T05:34:05;20.40;72.60
8002;DHT22;4046;48.774;8.732;2023-03-13T05:36:31;20.40;72.70
8002;DHT22;4046;48.774;8.732;2023-03-13T05:38:57;20.40;72.60
8002;DHT22;4046;48.774;8.732;2023-03-13T05:41:23;20.40;72.60
8002;DHT22;4046;48.774;8.732;2023-03-13T05:43:49;20.50;72.80
8002;DHT22;4046;48.774;8.732;2023-03-13T05:46:16;20.40;72.70
8002;DHT22;4046;48.774;8.732;2023-03-13T05:48:42;20.50;72.80
8002;DHT22;4046;48.774;8.732;2023-03-13T05:51:10;20.50;72.80
8002;DHT22;4046;48.774;8.732;2023-03-13T05:53:36;20.40;72.60
8002;DHT22;4046;48.774;8.732;2023-03-13T05:56:03;20.40;72.70
8002;DHT22;4046;48.774;8.732;2023-03-13T05:58:29;20.40;72.70
8002;DHT22;4046;48.774;8.732;2023-03-13T06:00:55;20.40;72.70
8002;DHT22;4046;48.774;8.732;2023-03-13T06:03:21;20.40;72.70
8002;DHT22;4046;48.774;8.732;2023-03-13T06:05:47;20.50;72.90
8002;DHT22;4046;48.774;8.732;2023-03-13T06:08:13;20.40;72.80
8002;DHT22;4046;48.774;8.732;2023-03-13T06:10:40;20.40;72.70
8002;DHT22;4046;48.774;8.732;2023-03-13T06:13:06;20.50;72.80
8002;DHT22;4046;48.774;8.732;2023-03-13T06:15:32;20.50;72.80
8002;DHT22;4046;48.774;8.732;2023-03-13T06:17:58;20.50;72.80
8002;DHT22;4046;48.774;8.732;2023-03-13T06:20:24;20.50;72.80
8002;DHT22;4046;48.774;8.732;2023-03-13T06:22:50;20.50;72.90
8002;DHT22;4046;48.774;8.732;2023-03-13T06:25:17;20.50;72.90
8002;DHT22;4046;48.774;8.732;2023-03-13T06:27:43;20.50;72.90
8002;DHT22;4046;48.774;8.732;2023-03-13T06:30:10;20.50;73.00
8002;DHT22;4046;48.774;8.732;2023-03-13T06:32:36;20.40;73.00
8002;DHT22;4046;48.774;8.732;2023-03-13T06:35:03;20.50;73.10
8002;DHT22;4046;48.774;8.732;2023-03-13T06:37:30;20.50;73.10
8002;DHT22;4046;48.774;8.732;2023-03-13T06:39:56;20.50;73.20
8002;DHT22;4046;48.774;8.732;2023-03-13T06:42:22;20.50;73.20
8002;DHT22;4046;48.774;8.732;2023-03-13T06:44:48;20.50;73.30
8002;DHT22;4046;48.774;8.732;2023-03-13T06:47:14;20.50;73.20
8002;DHT22;4046;48.774;8.732;2023-03-13T06:49:41;20.50;73.20
8002;DHT22;4046;48.774;8.732;2023-03-13T06:52:07;20.50;73.20
8002;DHT22;4046;48.774;8.732;2023-03-13T06:54:33;20.50;73.30
8002;DHT22;4046;48.774;8.732;2023-03-13T06:56:59;20.50;73.40
8002;DHT22;4046;48.774;8.732;2023-03-13T06:59:26;20.50;73.40
8002;DHT22;4046;48.774;8.732;2023-03-13T07:01:52;20.50;73.40
8002;DHT22;4046;48.774;8.732;2023-03-13T07:04:18;20.50;73.50
8002;DHT22;4046;48.774;8.732;2023-03-13T07:06:45;20.50;73.40
8002;DHT22;4046;48.774;8.732;2023-03-13T07:09:11;20.50;73.50
8002;DHT22;4046;48.774;8.732;2023-03-13T07:11:37;20.50;73.50
8002;DHT22;4046;48.774;8.732;2023-03-13T07:14:03;20.50;73.50
8002;DHT22;4046;48.774;8.732;2023-03-13T07:16:29;20.50;73.50
8002;DHT22;4046;48.774;8.732;2023-03-13T07:18:56;20.50;73.60
8002;DHT22;4046;48.774;8.732;2023-03-13T07:21:22;20.50;73.70
8002;DHT22;4046;48.774;8.732;2023-03-13T07:23:48;20.50;73.60
8002;DHT22;4046;48.774;8.732;2023-03-13T07:26:15;20.50;73.60
8002;DHT22;4046;48.774;8.732;2023-03-13T07:28:42;20.50;73.70
8002;DHT22;4046;48.774;8.732;2023-03-13T07:31:16;20.50;73.70
8002;DHT22;4046;48.774;8.732;2023-03-13T07:33:43;20.50;73.80
8002;DHT22;4046;48.774;8.732;2023-03-13T07:36:12;20.50;74.00
8002;DHT22;4046;48.774;8.732;2023-03-13T07:38:39;20.50;73.90
8002;DHT22;4046;48.774;8.732;2023-03-13T07:41:05;20.50;73.80
8002;DHT22;4046;48.774;8.732;2023-03-13T07:43:31;20.50;73.90
8002;DHT22;4046;48.774;8.732;2023-03-13T07:46:03;20.50;74.10
8002;DHT22;4046;48.774;8.732;2023-03-13T07:48:39;20.50;74.10
8002;DHT22;4046;48.774;8.732;2023-03-13T07:51:07;20.50;74.10
8002;DHT22;4046;48.774;8.732;2023-03-13T07:53:35;20.50;74.20
8002;DHT22;4046;48.774;8.732;2023-03-13T07:56:04;20.50;74.20
8002;DHT22;4046;48.774;8.732;2023-03-13T07:58:33;20.50;74.30
8002;DHT22;4046;48.774;8.732;2023-03-13T08:01:00;20.50;74.30
8002;DHT22;4046;48.774;8.732;2023-03-13T08:03:26;20.50;74.40
8002;DHT22;4046;48.774;8.732;2023-03-13T08:06:01;20.50;74.40
8002;DHT22;4046;48.774;8.732;2023-03-13T08:08:27;20.50;74.40
8002;DHT22;4046;48.774;8.732;2023-03-13T08:10:59;20.50;74.80
8002;DHT22;4046;48.774;8.732;2023-03-13T08:13:25;20.50;74.50
8002;DHT22;4046;48.774;8.732;2023-03-13T08:15:51;20.50;74.50
8002;DHT22;4046;48.774;8.732;2023-03-13T08:18:17;20.50;74.50
8002;DHT22;4046;48.774;8.732;2023-03-13T08:20:44;20.50;74.60
8002;DHT22;4046;48.774;8.732;2023-03-13T08:23:10;20.50;74.60
8002;DHT22;4046;48.774;8.732;2023-03-13T08:25:36;20.50;74.60
8002;DHT22;4046;48.774;8.732;2023-03-13T08:28:02;20.50;74.70
8002;DHT22;4046;48.774;8.732;2023-03-13T08:30:28;20.40;74.60
8002;DHT22;4046;48.774;8.732;2023-03-13T08:32:54;20.50;74.70
8002;DHT22;4046;48.774;8.732;2023-03-13T08:35:21;20.50;74.60
8002;DHT22;4046;48.774;8.732;2023-03-13T08:37:47;20.40;74.60
8002;DHT22;4046;48.774;8.732;2023-03-13T08:40:13;20.50;74.60
8002;DHT22;4046;48.774;8.732;2023-03-13T08:42:39;20.40;74.60
8002;DHT22;4046;48.774;8.732;2023-03-13T08:45:06;20.50;74.70
8002;DHT22;4046;48.774;8.732;2023-03-13T08:47:33;20.50;74.80
8002;DHT22;4046;48.774;8.732;2023-03-13T08:49:59;20.50;75.00
8002;DHT22;4046;48.774;8.732;2023-03-13T08:52:26;20.50;74.90
8002;DHT22;4046;48.774;8.732;2023-03-13T08:54:52;20.50;74.90
8002;DHT22;4046;48.774;8.732;2023-03-13T08:57:18;20.50;74.90
8002;DHT22;4046;48.774;8.732;2023-03-13T08:59:44;20.50;75.00
8002;DHT22;4046;48.774;8.732;2023-03-13T09:02:10;20.50;75.10
8002;DHT22;4046;48.774;8.732;2023-03-13T09:04:36;20.50;75.10
8002;DHT22;4046;48.774;8.732;2023-03-13T09:07:03;20.60;75.00
8002;DHT22;4046;48.774;8.732;2023-03-13T09:09:29;20.60;74.90
8002;DHT22;4046;48.774;8.732;2023-03-13T09:11:55;20.60;75.00
8002;DHT22;4046;48.774;8.732;2023-03-13T09:14:21;20.70;75.00
8002;DHT22;4046;48.774;8.732;2023-03-13T09:16:47;20.70;75.10
8002;DHT22;4046;48.774;8.732;2023-03-13T09:19:14;20.70;75.20
8002;DHT22;4046;48.774;8.732;2023-03-13T09:21:41;20.70;75.10
8002;DHT22;4046;48.774;8.732;2023-03-13T09:24:07;20.70;75.10
8002;DHT22;4046;48.774;8.732;2023-03-13T09:26:33;20.70;75.30
8002;DHT22;4046;48.774;8.732;2023-03-13T09:29:00;20.70;75.30
8002;DHT22;4046;48.774;8.732;2023-03-13T09:31:28;20.60;75.30
8002;DHT22;4046;48.774;8.732;2023-03-13T09:33:55;20.60;75.30
8002;DHT22;4046;48.774;8.732;2023-03-13T09:36:21;20.60;75.30
8002;DHT22;4046;48.774;8.732;2023-03-13T09:38:53;20.60;75.30
8002;DHT22;4046;48.774;8.732;2023-03-13T09:41:26;20.60;75.20
8002;DHT22;4046;48.774;8.732;2023-03-13T09:44:17;20.60;75.20
8002;DHT22;4046;48.774;8.732;2023-03-13T09:52:02;21.10;75.10
8002;DHT22;4046;48.774;8.732;2023-03-13T09:54:42;21.20;75.10
8002;DHT22;4046;48.774;8.732;2023-03-13T09:57:17;21.40;74.80
8002;DHT22;4046;48.774;8.732;2023-03-13T09:59:56;21.60;74.70
8002;DHT22;4046;48.774;8.732;2023-03-13T10:02:31;22.00;74.40
8002;DHT22;4046;48.774;8.732;2023-03-13T10:05:24;22.30;74.10
8002;DHT22;4046;48.774;8.732;2023-03-13T10:07:57;22.50;73.80
8002;DHT22;4046;48.774;8.732;2023-03-13T10:10:45;22.70;73.70
8002;DHT22;4046;48.774;8.732;2023-03-13T10:16:50;22.70;73.40
8002;DHT22;4046;48.774;8.732;2023-03-13T10:19:25;22.70;73.50
8002;DHT22;4046;48.774;8.732;2023-03-13T10:21:54;22.60;73.70
8002;DHT22;4046;48.774;8.732;2023-03-13T10:24:43;22.30;73.70
8002;DHT22;4046;48.774;8.732;2023-03-13T10:27:10;22.10;73.90
8002;DHT22;4046;48.774;8.732;2023-03-13T10:29:38;21.90;74.20
8002;DHT22;4046;48.774;8.732;2023-03-13T10:32:06;21.80;74.50
8002;DHT22;4046;48.774;8.732;2023-03-13T10:34:56;21.60;74.70
8002;DHT22;4046;48.774;8.732;2023-03-13T10:37:26;21.50;74.80
8002;DHT22;4046;48.774;8.732;2023-03-13T10:39:53;21.40;75.10
8002;DHT22;4046;48.774;8.732;2023-03-13T10:42:26;21.30;75.20
8002;DHT22;4046;48.774;8.732;2023-03-13T10:45:00;21.30;75.30
8002;DHT22;4046;48.774;8.732;2023-03-13T10:47:32;21.20;75.30
8002;DHT22;4046;48.774;8.732;2023-03-13T10:50:00;21.30;75.30
8002;DHT22;4046;48.774;8.732;2023-03-13T10:52:42;21.20;75.20
8002;DHT22;4046;48.774;8.732;2023-03-13T10:55:16;21.20;75.30
8002;DHT22;4046;48.774;8.732;2023-03-13T10:57:58;21.20;75.30
8002;DHT22;4046;48.774;8.732;2023-03-13T11:00:40;21.10;75.30
8002;DHT22;4046;48.774;8.732;2023-03-13T11:03:17;21.10;75.30
8002;DHT22;4046;48.774;8.732;2023-03-13T11:05:54;21.00;75.30
8002;DHT22;4046;48.774;8.732;2023-03-13T11:08:24;21.00;75.50
8002;DHT22;4046;48.774;8.732;2023-03-13T11:10:59;21.00;75.50
8002;DHT22;4046;48.774;8.732;2023-03-13T11:15:59;20.90;75.60
8002;DHT22;4046;48.774;8.732;2023-03-13T11:18:34;20.90;75.70
8002;DHT22;4046;48.774;8.732;2023-03-13T11:21:04;21.00;75.80
8002;DHT22;4046;48.774;8.732;2023-03-13T11:23:39;21.00;75.80
8002;DHT22;4046;48.774;8.732;2023-03-13T11:28:58;21.10;75.80
8002;DHT22;4046;48.774;8.732;2023-03-13T11:31:32;21.10;75.90
8002;DHT22;4046;48.774;8.732;2023-03-13T11:34:05;21.20;75.80
8002;DHT22;4046;48.774;8.732;2023-03-13T11:51:00;21.30;76.10
8002;DHT22;4046;48.774;8.732;2023-03-13T12:02:25;21.40;76.00
8002;DHT22;4046;48.774;8.732;2023-03-13T12:05:02;21.40;76.00
8002;DHT22;4046;48.774;8.732;2023-03-13T12:07:40;21.40;76.00
8002;DHT22;4046;48.774;8.732;2023-03-13T12:10:15;21.40;76.20
8002;DHT22;4046;48.774;8.732;2023-03-13T12:13:24;21.40;76.20
8002;DHT22;4046;48.774;8.732;2023-03-13T12:15:46;21.40;76.50
8002;DHT22;4046;48.774;8.732;2023-03-13T12:18:35;21.40;76.60
8002;DHT22;4046;48.774;8.732;2023-03-13T12:21:22;21.30;76.60
8002;DHT22;4046;48.774;8.732;2023-03-13T12:24:04;21.30;76.50
8002;DHT22;4046;48.774;8.732;2023-03-13T12:26:39;21.30;76.60
8002;DHT22;4046;48.774;8.732;2023-03-13T12:31:59;21.40;76.50
8002;DHT22;4046;48.774;8.732;2023-03-13T12:40:40;21.30;76.70
8002;DHT22;4046;48.774;8.732;2023-03-13T12:43:16;21.30;76.90
8002;DHT22;4046;48.774;8.732;2023-03-13T12:46:12;21.30;77.00
8002;DHT22;4046;48.774;8.732;2023-03-13T12:49:12;21.30;76.80
8002;DHT22;4046;48.774;8.732;2023-03-13T12:57:40;21.30;76.70
8002;DHT22;4046;48.774;8.732;2023-03-13T13:00:20;21.30;76.70
8002;DHT22;4046;48.774;8.732;2023-03-13T13:03:00;21.20;76.50
8002;DHT22;4046;48.774;8.732;2023-03-13T13:05:26;21.30;76.50
8002;DHT22;4046;48.774;8.732;2023-03-13T13:07:54;21.30;76.50
8002;DHT22;4046;48.774;8.732;2023-03-13T13:10:23;21.20;76.30
8002;DHT22;4046;48.774;8.732;2023-03-13T13:15:46;21.30;76.60
8002;DHT22;4046;48.774;8.732;2023-03-13T13:18:14;21.20;76.50
8002;DHT22;4046;48.774;8.732;2023-03-13T13:20:43;21.20;76.40
8002;DHT22;4046;48.774;8.732;2023-03-13T13:28:59;21.20;76.60
8002;DHT22;4046;48.774;8.732;2023-03-13T13:31:55;21.20;76.60
8002;DHT22;4046;48.774;8.732;2023-03-13T13:36:58;21.10;76.60
8002;DHT22;4046;48.774;8.732;2023-03-13T13:39:41;21.20;76.70
8002;DHT22;4046;48.774;8.732;2023-03-13T13:47:30;21.10;76.70
8002;DHT22;4046;48.774;8.732;2023-03-13T13:49:58;21.10;76.60
8002;DHT22;4046;48.774;8.732;2023-03-13T13:52:40;21.10;76.60
8002;DHT22;4046;48.774;8.732;2023-03-13T13:58:02;21.10;76.60
8002;DHT22;4046;48.774;8.732;2023-03-13T14:00:41;21.10;76.40
8002;DHT22;4046;48.774;8.732;2023-03-13T14:03:38;21.10;76.50
8002;DHT22;4046;48.774;8.732;2023-03-13T14:06:19;21.10;76.40
8002;DHT22;4046;48.774;8.732;2023-03-13T14:08:47;21.10;76.40
8002;DHT22;4046;48.774;8.732;2023-03-13T14:11:29;21.10;76.40
8002;DHT22;4046;48.774;8.732;2023-03-13T14:14:14;21.10;76.30
8002;DHT22;4046;48.774;8.732;2023-03-13T14:16:55;21.20;76.40
8002;DHT22;4046;48.774;8.732;2023-03-13T14:19:27;21.10;76.30
8002;DHT22;4046;48.774;8.732;2023-03-13T14:22:00;21.10;76.30
8002;DHT22;4046;48.774;8.732;2023-03-13T14:24:27;21.10;77.10
8002;DHT22;4046;48.774;8.732;2023-03-13T14:26:53;21.10;76.30
8002;DHT22;4046;48.774;8.732;2023-03-13T14:29:19;21.10;76.30
8002;DHT22;4046;48.774;8.732;2023-03-13T14:31:56;21.10;76.30
8002;DHT22;4046;48.774;8.732;2023-03-13T14:34:23;21.10;76.20
8002;DHT22;4046;48.774;8.732;2023-03-13T14:36:55;21.10;76.10
8002;DHT22;4046;48.774;8.732;2023-03-13T14:39:36;21.10;76.20
8002;DHT22;4046;48.774;8.732;2023-03-13T14:42:05;21.00;76.10
8002;DHT22;4046;48.774;8.732;2023-03-13T14:44:34;21.00;76.20
8002;DHT22;4046;48.774;8.732;2023-03-13T14:47:24;21.00;76.40
8002;DHT22;4046;48.774;8.732;2023-03-13T14:49:57;21.00;76.60
8002;DHT22;4046;48.774;8.732;2023-03-13T14:52:25;21.00;76.70
8002;DHT22;4046;48.774;8.732;2023-03-13T14:54:55;21.00;76.70
8002;DHT22;4046;48.774;8.732;2023-03-13T14:57:24;21.00;76.70
8002;DHT22;4046;48.774;8.732;2023-03-13T14:59:52;21.00;76.60
8002;DHT22;4046;48.774;8.732;2023-03-13T15:02:22;21.00;76.60
8002;DHT22;4046;48.774;8.732;2023-03-13T15:05:01;21.00;76.70
8002;DHT22;4046;48.774;8.732;2023-03-13T15:07:40;21.00;76.70
8002;DHT22;4046;48.774;8.732;2023-03-13T15:10:20;21.00;76.60
8002;DHT22;4046;48.774;8.732;2023-03-13T15:12:46;21.00;76.60
8002;DHT22;4046;48.774;8.732;2023-03-13T15:15:13;21.00;76.80
8002;DHT22;4046;48.774;8.732;2023-03-13T15:17:39;20.90;76.80
8002;DHT22;4046;48.774;8.732;2023-03-13T15:20:05;20.90;76.80
8002;DHT22;4046;48.774;8.732;2023-03-13T15:22:38;20.90;76.70
8002;DHT22;4046;48.774;8.732;2023-03-13T15:25:21;20.90;76.70
8002;DHT22;4046;48.774;8.732;2023-03-13T15:27:50;20.90;76.80
8002;DHT22;4046;48.774;8.732;2023-03-13T15:30:21;20.90;76.80
8002;DHT22;4046;48.774;8.732;2023-03-13T15:32:50;20.90;76.70
8002;DHT22;4046;48.774;8.732;2023-03-13T15:35:28;20.90;76.70
8002;DHT22;4046;48.774;8.732;2023-03-13T15:37:56;20.90;76.70
8002;DHT22;4046;48.774;8.732;2023-03-13T15:40:22;20.90;76.80
8002;DHT22;4046;48.774;8.732;2023-03-13T15:42:50;21.00;76.80
8002;DHT22;4046;48.774;8.732;2023-03-13T15:45:16;20.90;76.70
8002;DHT22;4046;48.774;8.732;2023-03-13T15:47:43;20.90;76.70
8002;DHT22;4046;48.774;8.732;2023-03-13T15:50:14;20.90;76.60
8002;DHT22;4046;48.774;8.732;2023-03-13T15:52:41;20.90;76.60
8002;DHT22;4046;48.774;8.732;2023-03-13T15:55:09;21.00;76.60
8002;DHT22;4046;48.774;8.732;2023-03-13T15:57:40;21.00;76.60
8002;DHT22;4046;48.774;8.732;2023-03-13T16:00:26;21.00;76.50
8002;DHT22;4046;48.774;8.732;2023-03-13T16:02:53;21.00;77.30
8002;DHT22;4046;48.774;8.732;2023-03-13T16:05:19;21.00;76.50
8002;DHT22;4046;48.774;8.732;2023-03-13T16:07:45;21.00;76.40
8002;DHT22;4046;48.774;8.732;2023-03-13T16:10:24;21.10;76.50
8002;DHT22;4046;48.774;8.732;2023-03-13T16:12:50;21.10;76.50
8002;DHT22;4046;48.774;8.732;2023-03-13T16:15:16;21.10;76.50
8002;DHT22;4046;48.774;8.732;2023-03-13T16:17:43;21.10;76.50
8002;DHT22;4046;48.774;8.732;2023-03-13T16:20:27;21.10;76.50
8002;DHT22;4046;48.774;8.732;2023-03-13T16:22:54;21.10;76.50
8002;DHT22;4046;48.774;8.732;2023-03-13T16:25:21;21.10;76.50
8002;DHT22;4046;48.774;8.732;2023-03-13T16:27:48;21.00;76.50
8002;DHT22;4046;48.774;8.732;2023-03-13T16:30:24;21.00;76.50
8002;DHT22;4046;48.774;8.732;2023-03-13T16:32:51;21.00;76.50
8002;DHT22;4046;48.774;8.732;2023-03-13T16:35:17;21.10;76.60
8002;DHT22;4046;48.774;8.732;2023-03-13T16:37:46;21.10;76.70
8002;DHT22;4046;48.774;8.732;2023-03-13T16:40:15;21.10;76.70
8002;DHT22;4046;48.774;8.732;2023-03-13T16:42:42;21.00;76.60
8002;DHT22;4046;48.774;8.732;2023-03-13T16:45:09;21.00;76.70
8002;DHT22;4046;48.774;8.732;2023-03-13T16:47:36;21.00;76.70
8002;DHT22;4046;48.774;8.732;2023-03-13T16:50:22;21.00;76.80
8002;DHT22;4046;48.774;8.732;2023-03-13T16:52:49;21.00;76.70
8002;DHT22;4046;48.774;8.732;2023-03-13T16:55:16;21.00;76.80
8002;DHT22;4046;48.774;8.732;2023-03-13T16:57:42;21.00;76.80
8002;DHT22;4046;48.774;8.732;2023-03-13T17:00:20;21.00;76.80
8002;DHT22;4046;48.774;8.732;2023-03-13T17:02:46;21.00;77.60
8002;DHT22;4046;48.774;8.732;2023-03-13T17:05:13;21.00;76.90
8002;DHT22;4046;48.774;8.732;2023-03-13T17:07:45;21.00;77.00
8002;DHT22;4046;48.774;8.732;2023-03-13T17:10:27;20.90;76.90
8002;DHT22;4046;48.774;8.732;2023-03-13T17:12:54;20.90;76.90
8002;DHT22;4046;48.774;8.732;2023-03-13T17:15:21;20.90;77.00
8002;DHT22;4046;48.774;8.732;2023-03-13T17:17:49;20.90;77.00
8002;DHT22;4046;48.774;8.732;2023-03-13T17:20:20;20.90;77.00
8002;DHT22;4046;48.774;8.732;2023-03-13T17:22:46;20.90;77.00
8002;DHT22;4046;48.774;8.732;2023-03-13T17:25:13;20.90;77.10
8002;DHT22;4046;48.774;8.732;2023-03-13T17:27:39;20.90;77.10
8002;DHT22;4046;48.774;8.732;2023-03-13T17:30:27;20.90;77.10
8002;DHT22;4046;48.774;8.732;2023-03-13T17:32:53;20.90;77.10